Time;durP1;ratioP1;P1;durP2;ratioP2;P2;SDS_P1;SDS_P2;PMS_P1;PMS_P2;Temp;Humidity;BMP_temperature;BMP_pressure;BME280_temperature;BME280_humidity;BME280_pressure;Samples;Min_cycle;Max_cycle;Signal;HPM_P1;HPM_P2
2021/04/10 00:01:40;;;;;;;22.5;7.4;;;;;;;3.43;62.12891;98643.39;;;;
2021/04/10 00:11:36;;;;;;;6.6;5.2;;;;;;;3.52;60.94727;98623.17;;;;
2021/04/10 00:21:33;;;;;;;8.2;4.3;;;;;;;3.87;60.79785;98614.48;;;;
2021/04/10 00:31:31;;;;;;;7.4;4.3;;;;;;;4.49;59.72363;98604.42;;;;
2021/04/10 00:41:29;;;;;;;7.4;3.7;;;;;;;4.79;58.96973;98594.8;;;;
2021/04/10 00:51:27;;;;;;;7.8;4.2;;;;;;;4.99;58.49414;98582.2;;;;
2021/04/10 01:01:26;;;;;;;7.3;3.7;;;;;;;5.1;59.8418;98580.3;;;;
2021/04/10 01:11:24;;;;;;;8.3;4.4;;;;;;;5.19;59.20313;98583.2;;;;
2021/04/10 01:21:22;;;;;;;7.2;5;;;;;;;5.06;61.4248;98589.92;;;;
2021/04/10 01:31:20;;;;;;;9.4;5.9;;;;;;;4.82;62.41992;98592.39;;;;
2021/04/10 01:41:18;;;;;;;13.1;7.6;;;;;;;4.63;60.69141;98577.18;;;;
2021/04/10 01:51:16;;;;;;;17.2;4.2;;;;;;;4.6;61.66016;98580.39;;;;
2021/04/10 02:01:14;;;;;;;10.8;4.8;;;;;;;4.42;61.19824;98568.39;;;;
2021/04/10 02:21:11;;;;;;;13.9;4.3;;;;;;;4.42;61.66797;98557.72;;;;
2021/04/10 02:31:08;;;;;;;8.4;5.1;;;;;;;4.24;62.42383;98547.58;;;;
2021/04/10 02:41:06;;;;;;;5.4;3.8;;;;;;;4.01;62.78223;98552.39;;;;
2021/04/10 02:51:04;;;;;;;6.3;4.1;;;;;;;3.71;64.59863;98559.55;;;;
2021/04/10 03:01:02;;;;;;;7;5;;;;;;;3.33;66.34668;98558.11;;;;
2021/04/10 03:11:00;;;;;;;9.7;3.7;;;;;;;3.36;66.42871;98554.92;;;;
2021/04/10 03:20:58;;;;;;;7.8;5.2;;;;;;;2.98;67.01367;98561.42;;;;
2021/04/10 03:30:56;;;;;;;11.3;4.1;;;;;;;2.98;70.05859;98564.08;;;;
2021/04/10 03:40:54;;;;;;;6;3.7;;;;;;;2.91;68.6709;98563.52;;;;
2021/04/10 03:50:52;;;;;;;9.3;4.4;;;;;;;2.39;76.11328;98571.42;;;;
2021/04/10 04:00:50;;;;;;;6.4;3.1;;;;;;;2.41;76.91504;98580.74;;;;
2021/04/10 04:10:47;;;;;;;6.2;3.4;;;;;;;2.64;72.27734;98573.47;;;;
2021/04/10 04:20:45;;;;;;;12.7;5.3;;;;;;;2.71;71.46875;98569.5;;;;
2021/04/10 04:30:43;;;;;;;9.8;5.9;;;;;;;2.94;70.74121;98576.3;;;;
2021/04/10 04:40:41;;;;;;;6.4;4.4;;;;;;;3.18;68.8916;98574.82;;;;
2021/04/10 04:50:39;;;;;;;8.8;5.9;;;;;;;3.2;71.59473;98593.19;;;;
2021/04/10 05:00:37;;;;;;;10.7;7.1;;;;;;;3.38;72.33594;98600.73;;;;
2021/04/10 05:10:37;;;;;;;10.5;5.6;;;;;;;3.8;71.04004;98601.41;;;;
2021/04/10 05:20:33;;;;;;;15.5;10.4;;;;;;;4.18;69.35156;98602;;;;
2021/04/10 05:30:31;;;;;;;13.6;11.5;;;;;;;4.63;71.57715;98615.35;;;;
2021/04/10 05:40:29;;;;;;;12.7;8.7;;;;;;;5.22;69.54297;98630.74;;;;
2021/04/10 05:50:27;;;;;;;15.6;11.1;;;;;;;5.73;67.91309;98626.8;;;;
2021/04/10 06:00:25;;;;;;;14;10.9;;;;;;;6.32;67.82813;98629.43;;;;
2021/04/10 06:10:23;;;;;;;18;11.9;;;;;;;7.15;66.93555;98639.97;;;;
2021/04/10 06:20:22;;;;;;;14;11.6;;;;;;;7.91;65.86133;98645.24;;;;
2021/04/10 06:30:20;;;;;;;14.6;6.8;;;;;;;8.59;60.67676;98645.65;;;;
2021/04/10 06:40:19;;;;;;;10.8;7.1;;;;;;;9.14;58.7168;98639.61;;;;
2021/04/10 06:50:17;;;;;;;15.4;8.9;;;;;;;9.79;55.37402;98659.88;;;;
2021/04/10 07:00:16;;;;;;;7.2;4.7;;;;;;;10.41;52.26074;98642.12;;;;
2021/04/10 07:10:15;;;;;;;10.1;4.7;;;;;;;10.92;49.81836;98652.5;;;;
2021/04/10 07:20:14;;;;;;;4.9;3;;;;;;;11.48;46.62109;98653.75;;;;
2021/04/10 07:30:13;;;;;;;6.3;3.5;;;;;;;11.98;45.46484;98657.73;;;;
2021/04/10 07:40:11;;;;;;;5.3;3;;;;;;;12.53;45.45313;98655.25;;;;
2021/04/10 07:50:10;;;;;;;4.8;2.7;;;;;;;12.93;42.95117;98647.75;;;;
2021/04/10 08:00:09;;;;;;;5;2;;;;;;;13.41;41.04785;98646.69;;;;
2021/04/10 08:10:08;;;;;;;6.1;2.5;;;;;;;13.86;40.13574;98644.26;;;;
2021/04/10 08:20:07;;;;;;;4.7;2.6;;;;;;;14.21;40.03027;98640.22;;;;
2021/04/10 08:30:07;;;;;;;3.9;2.5;;;;;;;14.57;38.31348;98634.23;;;;
2021/04/10 08:40:06;;;;;;;7.3;2.4;;;;;;;14.83;38.15137;98639.41;;;;
2021/04/10 08:50:05;;;;;;;11.7;2.9;;;;;;;15.39;37.36816;98640.59;;;;
2021/04/10 09:00:04;;;;;;;3.8;2.3;;;;;;;15.53;36.53809;98636.45;;;;
2021/04/10 09:10:04;;;;;;;6.1;2.8;;;;;;;15.87;36.87793;98632.48;;;;
2021/04/10 09:20:03;;;;;;;4.7;2.1;;;;;;;16.18;33.68652;98633.8;;;;
2021/04/10 09:30:03;;;;;;;7.2;2.5;;;;;;;16.44;32.14258;98631.48;;;;
2021/04/10 09:40:03;;;;;;;8;2.7;;;;;;;16.38;34.1543;98627.44;;;;
2021/04/10 09:50:02;;;;;;;3.2;1.5;;;;;;;16.68;34.06152;98622.48;;;;
2021/04/10 10:00:01;;;;;;;9.6;2.6;;;;;;;16.9;38.23926;98609.09;;;;
2021/04/10 10:10:01;;;;;;;6.3;2.6;;;;;;;17.18;35.31836;98609.05;;;;
2021/04/10 10:20:00;;;;;;;4.3;2.4;;;;;;;17.45;35.45605;98613.66;;;;
2021/04/10 10:30:00;;;;;;;3.9;1.5;;;;;;;17.54;31.67773;98595.19;;;;
2021/04/10 10:39:59;;;;;;;4.6;2.1;;;;;;;17.52;30.1543;98586.58;;;;
2021/04/10 10:49:59;;;;;;;3.7;2;;;;;;;17.72;28.52734;98590.19;;;;
2021/04/10 10:59:59;;;;;;;2.4;1.3;;;;;;;17.85;27.68652;98596.31;;;;
2021/04/10 11:09:58;;;;;;;3.4;1.7;;;;;;;17.98;27.55469;98593.11;;;;
2021/04/10 11:19:59;;;;;;;3.5;1.9;;;;;;;18.12;28.50586;98594.59;;;;
2021/04/10 11:29:58;;;;;;;5.9;1.9;;;;;;;18.09;25.83691;98590.63;;;;
2021/04/10 11:39:57;;;;;;;3.4;1.8;;;;;;;18.1;26.21094;98590.28;;;;
2021/04/10 11:49:57;;;;;;;5;2.3;;;;;;;18.28;26.85059;98596.13;;;;
2021/04/10 11:59:57;;;;;;;4;1.8;;;;;;;18.31;26.22266;98589.15;;;;
2021/04/10 12:09:56;;;;;;;5.4;2.5;;;;;;;18.51;28.2168;98585.3;;;;
2021/04/10 12:19:56;;;;;;;4.3;1.8;;;;;;;18.41;26.98633;98583.12;;;;
2021/04/10 12:29:56;;;;;;;5;2;;;;;;;18.5;29.23047;98573.59;;;;
2021/04/10 12:39:56;;;;;;;4.4;2.4;;;;;;;18.69;27.00391;98574.73;;;;
2021/04/10 12:49:55;;;;;;;8.5;1.8;;;;;;;18.89;27.8916;98579.02;;;;
2021/04/10 12:59:55;;;;;;;6.2;2.7;;;;;;;19.09;29.8877;98561.42;;;;
2021/04/10 13:09:55;;;;;;;4;1.9;;;;;;;19.04;28.57813;98573.46;;;;
2021/04/10 13:19:55;;;;;;;5.9;2.9;;;;;;;19.09;26.65527;98556.75;;;;
2021/04/10 13:29:55;;;;;;;4.3;2.3;;;;;;;19.03;25.69336;98560.95;;;;
2021/04/10 13:39:54;;;;;;;5.2;2.3;;;;;;;19.33;27.58008;98550.13;;;;
2021/04/10 13:49:54;;;;;;;5.5;2.6;;;;;;;19.36;27.06836;98548.63;;;;
2021/04/10 13:59:54;;;;;;;5.8;2.1;;;;;;;19.24;26.8623;98548.8;;;;
2021/04/10 14:09:54;;;;;;;13.3;2.6;;;;;;;19.76;26.83496;98556.29;;;;
2021/04/10 14:19:54;;;;;;;5.1;2.2;;;;;;;19.87;25.56738;98547.09;;;;
2021/04/10 14:29:54;;;;;;;4.8;1.7;;;;;;;20.02;24.00684;98553.55;;;;
2021/04/10 14:39:53;;;;;;;5.6;2.2;;;;;;;19.84;23.92676;98553.3;;;;
2021/04/10 14:49:53;;;;;;;5.1;2.3;;;;;;;19.53;26.78711;98542.67;;;;
2021/04/10 14:59:53;;;;;;;3.6;2.1;;;;;;;19.66;27.23926;98549.52;;;;
2021/04/10 15:09:53;;;;;;;7;3;;;;;;;20.76;25.59473;98557.2;;;;
2021/04/10 15:19:53;;;;;;;5.9;3.2;;;;;;;22.11;24.83691;98555.63;;;;
2021/04/10 15:29:53;;;;;;;6.2;2.2;;;;;;;22.8;25.02832;98553.56;;;;
2021/04/10 15:39:53;;;;;;;6.6;3.2;;;;;;;23.14;24.10547;98549.3;;;;
2021/04/10 15:49:53;;;;;;;8.5;4.2;;;;;;;23.28;24.50195;98557.56;;;;
2021/04/10 15:59:54;;;;;;;9;5.3;;;;;;;22.61;24.58301;98556.61;;;;
2021/04/10 16:09:54;;;;;;;8.7;4.6;;;;;;;22.65;24.37305;98563.7;;;;
2021/04/10 16:19:54;;;;;;;5.4;3;;;;;;;22.26;24.91602;98554.5;;;;
2021/04/10 16:29:55;;;;;;;13.4;3.8;;;;;;;21.16;26.4043;98555.69;;;;
2021/04/10 16:39:55;;;;;;;6.6;3.8;;;;;;;19.37;28.26074;98550.19;;;;
2021/04/10 16:49:55;;;;;;;10.3;6.7;;;;;;;18.09;29.91406;98555.95;;;;
2021/04/10 16:59:54;;;;;;;12.6;6;;;;;;;17.04;32.32617;98555.01;;;;
2021/04/10 17:09:55;;;;;;;13.4;8.1;;;;;;;15.91;33.72461;98565.44;;;;
2021/04/10 17:19:53;;;;;;;14.1;9.4;;;;;;;15.02;35.17969;98569.95;;;;
2021/04/10 17:29:53;;;;;;;16.6;10.3;;;;;;;14.17;37.56445;98582.36;;;;
2021/04/10 17:39:52;;;;;;;14;12.5;;;;;;;13.41;38.00488;98592.55;;;;
2021/04/10 17:49:51;;;;;;;13.4;12;;;;;;;12.89;41.77832;98602.72;;;;
2021/04/10 17:59:50;;;;;;;17.9;12.4;;;;;;;12.59;41.46387;98608.04;;;;
2021/04/10 18:09:49;;;;;;;18.7;11.5;;;;;;;12.46;41.91992;98619.02;;;;
2021/04/10 18:19:47;;;;;;;20.4;13.3;;;;;;;12.22;42.62988;98643.78;;;;
2021/04/10 18:29:47;;;;;;;19.9;13.8;;;;;;;12.24;42.19727;98646.98;;;;
2021/04/10 18:39:45;;;;;;;16;13.5;;;;;;;12.02;42.4502;98652.5;;;;
2021/04/10 18:49:44;;;;;;;19.9;11.1;;;;;;;11.99;42.03711;98651.23;;;;
2021/04/10 18:59:46;;;;;;;17.8;14.3;;;;;;;11.57;44.1084;98654.56;;;;
2021/04/10 19:09:41;;;;;;;22;15.4;;;;;;;11.43;44.04883;98656.56;;;;
2021/04/10 19:19:42;;;;;;;20.4;13.6;;;;;;;10.99;45.94238;98660.16;;;;
2021/04/10 19:29:39;;;;;;;31.1;25.8;;;;;;;10.42;46.05273;98678.75;;;;
2021/04/10 19:39:39;;;;;;;34.4;17.1;;;;;;;10.13;47.11426;98679.07;;;;
2021/04/10 19:49:39;;;;;;;29.6;18.7;;;;;;;10.03;47.13672;98689.29;;;;
2021/04/10 19:59:35;;;;;;;27.9;21;;;;;;;9.64;47.84375;98686.3;;;;
2021/04/10 20:09:33;;;;;;;17;13.1;;;;;;;9.33;47.59473;98697.64;;;;
2021/04/10 20:19:32;;;;;;;14.9;12.2;;;;;;;8.82;48.78613;98700.36;;;;
2021/04/10 20:29:30;;;;;;;17.6;14.6;;;;;;;8.47;50.52441;98707.06;;;;
2021/04/10 20:39:29;;;;;;;26;17.9;;;;;;;8.04;50.66504;98713.53;;;;
2021/04/10 20:49:27;;;;;;;25.8;23;;;;;;;7.63;52.98828;98713.22;;;;
2021/04/10 20:59:26;;;;;;;17.1;15.3;;;;;;;7.3;54.97754;98719.44;;;;
2021/04/10 21:09:24;;;;;;;33.5;25.6;;;;;;;7.15;58.80957;98723.05;;;;
2021/04/10 21:19:22;;;;;;;31.8;22.9;;;;;;;6.87;58.89551;98726.52;;;;
2021/04/10 21:29:20;;;;;;;40.4;28.7;;;;;;;6.73;60.79785;98742.42;;;;
2021/04/10 21:39:18;;;;;;;40.7;31.4;;;;;;;6.42;62.10059;98741.02;;;;
2021/04/10 21:49:17;;;;;;;44.5;34.9;;;;;;;6.01;62.83887;98751.09;;;;
2021/04/10 21:59:15;;;;;;;58.4;39.1;;;;;;;5.74;65.28613;98759.44;;;;
2021/04/10 22:09:13;;;;;;;47.4;36.2;;;;;;;5.56;69.41992;98760.81;;;;
2021/04/10 22:19:12;;;;;;;35.3;28.8;;;;;;;5.41;68.29883;98760.05;;;;
2021/04/10 22:29:09;;;;;;;45;33.6;;;;;;;5.18;68.97852;98756.05;;;;
2021/04/10 22:39:07;;;;;;;59.6;35.2;;;;;;;5.21;70.26563;98744.02;;;;
2021/04/10 22:49:05;;;;;;;49.8;34.4;;;;;;;5.21;70.92383;98736;;;;
2021/04/10 22:59:03;;;;;;;43.7;31;;;;;;;5.3;71.62109;98739.75;;;;
2021/04/10 23:09:02;;;;;;;39;29;;;;;;;5.18;70.95313;98736.54;;;;
2021/04/10 23:18:59;;;;;;;30.6;21.2;;;;;;;5.32;68.76563;98726.91;;;;
2021/04/10 23:28:57;;;;;;;25.2;21.7;;;;;;;5.46;67.63672;98718.07;;;;
2021/04/10 23:38:54;;;;;;;24.7;15.9;;;;;;;5.43;66.82715;98712.47;;;;
2021/04/10 23:48:52;;;;;;;18.3;13.3;;;;;;;5.55;68.8916;98710.31;;;;
2021/04/10 23:58:50;;;;;;;15.7;11.5;;;;;;;5.42;67.46191;98702.84;;;;
